Caraquet, Canada
Current Conditions -  °F | °C
As of 4:00 PM on Thursday 23 Oct 2014 (Local Time) from CZBF Reporting Station
Overcast Overcast  
Wind Chill:   Ceiling: 1600
Heat Index:   Visibility: 15mi
Dew Point:   Wind: 10mph
Humidity: 81%   Direction: 40°NE
Pressure: 30.19"   Gusts: 21mph
Location:  47.78°N, 64.95°W
Report Text: CZBF 231900Z 04009G18KT 15SM OVC016 07/04 A3019 RMK SC8 SLP225
Loading
Personal Weather Stations






























Interactive Weather Map
Tropical Storm Tracking
New forecast layout! Learn more

10-Day Weather Forecast

Advertisements
Track Severe Weather on mobile